Time;durP1;ratioP1;P1;durP2;ratioP2;P2;SDS_P1;SDS_P2;PMS_P1;PMS_P2;Temp;Humidity;BMP_temperature;BMP_pressure;BME280_temperature;BME280_humidity;BME280_pressure;Samples;Min_cycle;Max_cycle;Signal;HPM_P1;HPM_P2
2022/04/12 00:01:31;;;;;;;10.70;7.90;;;;;;;14.17;41.84;97203.69;5123403;27;20658;-76
2022/04/12 00:03:57;;;;;;;10.47;7.70;;;;;;;14.18;41.66;97190.34;5123081;27;20793;-74
2022/04/12 00:06:22;;;;;;;12.17;7.57;;;;;;;14.09;41.82;97191.41;5122882;27;20442;-73
2022/04/12 00:08:48;;;;;;;9.27;7.40;;;;;;;13.96;42.22;97189.31;5118139;27;20229;-74
2022/04/12 00:11:13;;;;;;;9.07;6.90;;;;;;;13.88;42.07;97184.91;5127597;28;20211;-75
2022/04/12 00:13:39;;;;;;;8.17;7.00;;;;;;;13.78;42.51;97195.69;5111227;27;20184;-74
2022/04/12 00:16:04;;;;;;;8.00;6.60;;;;;;;13.77;42.76;97191.41;5120044;28;20219;-74
2022/04/12 00:21:14;;;;;;;10.73;7.03;;;;;;;13.75;42.47;97195.19;5126806;27;20204;-75
2022/04/12 00:23:40;;;;;;;25.83;7.53;;;;;;;13.77;42.72;97198.47;5127893;27;20431;-75
2022/04/12 00:26:05;;;;;;;11.43;7.10;;;;;;;13.76;42.52;97187.13;5124232;27;20211;-75
2022/04/12 00:28:31;;;;;;;10.13;7.63;;;;;;;13.75;42.56;97189.94;5124395;27;20485;-73
2022/04/12 00:30:56;;;;;;;10.67;7.53;;;;;;;13.68;42.52;97189.78;5123137;27;20693;-75
2022/04/12 00:33:22;;;;;;;8.63;6.93;;;;;;;13.64;42.82;97193.78;5118377;27;20212;-74
2022/04/12 00:35:47;;;;;;;8.80;6.03;;;;;;;13.56;42.76;97186.75;5130718;27;20588;-74
2022/04/12 00:38:22;;;;;;;10.30;6.70;;;;;;;13.59;43.00;97185.56;5130164;27;20223;-74
2022/04/12 00:40:48;;;;;;;9.23;6.80;;;;;;;13.55;42.86;97186.91;5130129;27;20287;-74
2022/04/12 00:43:18;;;;;;;9.17;6.40;;;;;;;13.53;42.93;97181.81;5122512;27;20419;-75
2022/04/12 00:45:45;;;;;;;13.80;6.53;;;;;;;13.45;43.23;97189.75;5126892;27;20509;-75
2022/04/12 00:48:10;;;;;;;8.07;6.37;;;;;;;13.38;43.38;97192.22;5133872;27;20453;-74
2022/04/12 00:50:36;;;;;;;8.77;6.50;;;;;;;13.35;42.98;97201.28;5131325;27;20453;-75
2022/04/12 00:53:02;;;;;;;9.57;6.77;;;;;;;13.28;43.37;97189.78;5126582;27;20181;-76
2022/04/12 00:55:29;;;;;;;11.63;7.00;;;;;;;13.23;43.58;97196.53;5123655;27;20426;-75
2022/04/12 00:57:55;;;;;;;10.17;6.60;;;;;;;13.18;43.54;97195.22;5133966;27;20267;-75
2022/04/12 01:00:20;;;;;;;8.70;6.57;;;;;;;13.11;43.79;97188.16;5125036;27;20910;-75
2022/04/12 01:02:46;;;;;;;12.37;6.40;;;;;;;13.06;43.76;97186.06;5122716;27;20201;-75
2022/04/12 01:05:11;;;;;;;8.10;6.40;;;;;;;13.04;43.99;97191.50;5123178;27;20246;-76
2022/04/12 01:07:37;;;;;;;7.77;5.77;;;;;;;13.04;44.12;97195.94;5129812;27;20181;-74
2022/04/12 01:10:04;;;;;;;10.33;6.03;;;;;;;13.02;44.09;97182.94;5114267;28;20753;-75
2022/04/12 01:12:30;;;;;;;8.83;6.10;;;;;;;12.94;44.52;97188.22;5130509;27;20187;-74
2022/04/12 01:15:11;;;;;;;8.47;6.43;;;;;;;13.04;44.37;97186.22;5144945;27;20429;-75
2022/04/12 01:17:36;;;;;;;8.03;5.23;;;;;;;13.04;44.51;97188.88;5118753;27;20449;-75
2022/04/12 01:20:02;;;;;;;8.70;5.93;;;;;;;12.98;43.82;97183.44;5132515;27;20449;-76
2022/04/12 01:22:29;;;;;;;7.10;5.83;;;;;;;12.94;44.15;97175.09;5130336;27;20195;-76
2022/04/12 01:24:55;;;;;;;9.23;5.80;;;;;;;12.95;44.46;97176.72;5100462;27;20192;-74
2022/04/12 01:27:20;;;;;;;9.00;6.20;;;;;;;12.94;44.46;97176.88;5115575;27;20437;-76
2022/04/12 01:29:47;;;;;;;7.07;6.03;;;;;;;12.93;44.31;97170.81;5133870;27;20200;-75
2022/04/12 01:32:13;;;;;;;8.00;6.63;;;;;;;12.89;44.51;97166.88;5128194;27;20189;-74
2022/04/12 01:34:39;;;;;;;8.23;6.53;;;;;;;12.87;44.26;97174.09;5138814;27;20423;-75
2022/04/12 01:37:05;;;;;;;12.37;6.57;;;;;;;12.84;44.76;97177.09;5129184;27;20433;-74
2022/04/12 01:39:31;;;;;;;11.10;7.87;;;;;;;12.86;44.48;97180.34;5137277;27;20253;-74
2022/04/12 01:41:57;;;;;;;10.37;7.83;;;;;;;12.90;44.12;97179.03;5128301;27;20427;-74
2022/04/12 01:44:22;;;;;;;13.67;8.07;;;;;;;12.93;43.48;97178.69;5138380;27;20419;-73
2022/04/12 01:46:48;;;;;;;12.30;7.50;;;;;;;12.92;44.07;97178.88;5135715;27;20181;-73
2022/04/12 01:49:13;;;;;;;12.67;6.93;;;;;;;12.80;44.63;97178.38;5140617;27;20215;-73
2022/04/12 01:51:39;;;;;;;7.70;6.90;;;;;;;12.75;44.56;97173.63;5122797;27;20173;-72
2022/04/12 01:54:05;;;;;;;11.20;7.17;;;;;;;12.78;44.74;97175.09;5120893;27;20212;-73
2022/04/12 01:56:31;;;;;;;8.83;6.43;;;;;;;12.75;44.94;97174.44;5120199;27;20189;-73
2022/04/12 01:58:58;;;;;;;8.30;6.83;;;;;;;12.80;44.89;97170.50;5119147;27;20649;-73
2022/04/12 02:01:24;;;;;;;9.97;7.37;;;;;;;12.81;44.54;97182.66;5112649;28;20811;-73
2022/04/12 02:03:49;;;;;;;12.23;6.83;;;;;;;12.78;44.09;97172.47;5117492;27;20422;-73
2022/04/12 02:06:15;;;;;;;10.33;6.77;;;;;;;12.76;44.69;97180.53;5125018;27;20176;-74
2022/04/12 02:08:40;;;;;;;9.90;7.40;;;;;;;12.80;44.30;97175.75;5112337;27;20756;-73
2022/04/12 02:11:06;;;;;;;10.17;6.70;;;;;;;12.74;44.56;97178.06;5120779;27;20200;-74
2022/04/12 02:13:32;;;;;;;9.13;6.80;;;;;;;12.69;44.82;97175.13;5123064;27;20415;-73
2022/04/12 02:15:58;;;;;;;10.57;7.60;;;;;;;12.59;44.89;97166.59;5124479;27;20787;-74
2022/04/12 02:18:23;;;;;;;10.50;7.40;;;;;;;12.54;45.26;97166.25;5124291;27;20680;-72
2022/04/12 02:20:49;;;;;;;13.17;7.73;;;;;;;12.58;44.98;97167.59;5125065;27;20204;-74
2022/04/12 02:23:14;;;;;;;11.30;7.60;;;;;;;12.56;44.82;97164.28;5124598;27;20187;-72
2022/04/12 02:25:39;;;;;;;8.27;7.10;;;;;;;12.54;45.07;97166.25;5121294;27;20211;-75
2022/04/12 02:28:05;;;;;;;11.47;7.30;;;;;;;12.57;44.74;97160.69;5126318;27;20221;-75
2022/04/12 02:30:31;;;;;;;9.73;7.20;;;;;;;12.53;44.78;97167.25;5134287;27;20227;-73
2022/04/12 02:32:56;;;;;;;10.07;7.30;;;;;;;12.60;44.32;97165.63;5124014;27;20260;-74
2022/04/12 02:35:22;;;;;;;10.60;7.17;;;;;;;12.60;44.83;97163.00;5129709;27;20188;-74
2022/04/12 02:37:47;;;;;;;10.00;7.03;;;;;;;12.44;44.68;97166.41;5124211;27;20198;-74
2022/04/12 02:40:12;;;;;;;9.93;7.40;;;;;;;12.46;44.87;97161.81;5124141;27;20229;-73
2022/04/12 02:42:38;;;;;;;8.43;7.10;;;;;;;12.47;44.96;97160.84;5128448;27;20177;-74
2022/04/12 02:45:04;;;;;;;13.63;8.27;;;;;;;12.50;44.61;97165.78;5127887;27;20208;-73
2022/04/12 02:47:29;;;;;;;12.10;7.80;;;;;;;12.53;44.21;97162.81;5115462;27;20177;-74
2022/04/12 02:49:55;;;;;;;11.20;7.30;;;;;;;12.54;44.46;97166.25;5123333;27;20211;-74
2022/04/12 02:52:21;;;;;;;10.27;7.93;;;;;;;12.57;44.51;97168.56;5112755;27;20185;-74
2022/04/12 02:54:46;;;;;;;9.80;7.27;;;;;;;12.52;44.80;97160.34;5111797;28;20645;-74
2022/04/12 02:57:11;;;;;;;9.43;6.80;;;;;;;12.44;44.63;97158.53;5119947;27;20199;-74
2022/04/12 02:59:37;;;;;;;10.20;7.47;;;;;;;12.40;44.84;97165.94;5112075;27;20189;-74
2022/04/12 03:02:02;;;;;;;9.90;7.50;;;;;;;12.41;44.76;97167.59;5125759;27;20180;-73
2022/04/12 03:04:28;;;;;;;10.87;7.60;;;;;;;12.42;45.08;97161.34;5121909;27;20184;-74
2022/04/12 03:06:53;;;;;;;12.70;7.97;;;;;;;12.47;44.76;97170.56;5119905;27;20179;-74
2022/04/12 03:09:19;;;;;;;14.03;7.67;;;;;;;12.46;44.50;97158.38;5119658;27;20292;-73
2022/04/12 03:11:45;;;;;;;12.50;7.77;;;;;;;12.38;44.89;97157.38;5103565;28;20189;-73
2022/04/12 03:14:10;;;;;;;12.20;7.80;;;;;;;12.31;44.66;97156.44;5111749;28;20177;-73
2022/04/12 03:16:36;;;;;;;12.90;7.63;;;;;;;12.33;45.22;97151.00;5122905;27;20190;-74
2022/04/12 03:19:01;;;;;;;7.90;7.07;;;;;;;12.40;44.43;97155.44;5130459;27;20199;-73
2022/04/12 03:21:27;;;;;;;12.57;8.03;;;;;;;12.42;44.58;97145.56;5122382;27;20252;-74
2022/04/12 03:23:52;;;;;;;13.03;7.00;;;;;;;12.48;44.21;97145.88;5117585;27;20183;-72
2022/04/12 03:26:17;;;;;;;10.03;7.30;;;;;;;12.52;44.18;97144.56;5122661;27;20652;-73
2022/04/12 03:28:43;;;;;;;7.70;6.60;;;;;;;12.42;44.08;97145.56;5111539;28;20296;-75
2022/04/12 03:31:08;;;;;;;9.87;7.03;;;;;;;12.47;44.29;97141.63;5124151;28;20226;-74
2022/04/12 03:33:34;;;;;;;13.00;7.00;;;;;;;12.50;44.24;97150.00;5127225;28;20192;-74
2022/04/12 03:36:00;;;;;;;9.57;8.03;;;;;;;12.49;44.00;97150.16;5112182;28;20180;-73
2022/04/12 03:38:25;;;;;;;10.87;8.20;;;;;;;12.53;43.73;97148.84;5121649;28;20431;-74
2022/04/12 03:40:51;;;;;;;10.37;7.80;;;;;;;12.48;44.52;97151.13;5132942;27;20220;-73
2022/04/12 03:43:17;;;;;;;12.80;7.83;;;;;;;12.49;43.92;97153.63;5119426;28;20183;-73
2022/04/12 03:45:42;;;;;;;7.80;6.90;;;;;;;12.51;44.02;97151.66;5123477;27;20180;-74
2022/04/12 03:48:08;;;;;;;10.17;8.00;;;;;;;12.56;43.84;97151.16;5123950;28;20684;-75
2022/04/12 03:50:37;;;;;;;9.00;8.10;;;;;;;12.54;44.18;97150.50;5120195;28;20329;-74
2022/04/12 03:53:02;;;;;;;8.97;6.93;;;;;;;12.43;44.08;97149.84;5131767;27;20176;-74
2022/04/12 03:55:31;;;;;;;9.50;7.90;;;;;;;12.31;44.79;97150.31;5086334;28;20435;-73
2022/04/12 03:58:02;;;;;;;11.03;7.03;;;;;;;12.38;44.28;97144.25;5117931;27;20212;-74
2022/04/12 04:00:28;;;;;;;10.50;7.70;;;;;;;12.35;44.51;97146.41;5114465;28;20530;-74
2022/04/12 04:02:54;;;;;;;11.00;7.50;;;;;;;12.35;44.36;97149.84;5130985;27;20957;-75
2022/04/12 04:05:20;;;;;;;16.67;6.93;;;;;;;12.33;44.36;97141.31;5114556;27;20322;-74
2022/04/12 04:07:45;;;;;;;12.80;7.60;;;;;;;12.23;44.96;97140.63;5131225;27;20430;-74
2022/04/12 04:10:11;;;;;;;8.47;7.27;;;;;;;12.25;44.97;97136.88;5113998;28;20192;-73
2022/04/12 04:12:36;;;;;;;10.83;7.30;;;;;;;12.24;44.71;97140.50;5114221;28;20173;-75
2022/04/12 04:15:05;;;;;;;8.93;6.53;;;;;;;12.25;44.72;97139.50;5115866;28;20208;-75
2022/04/12 04:17:32;;;;;;;9.57;7.00;;;;;;;12.18;45.19;97140.31;5114376;28;20185;-75
2022/04/12 04:19:57;;;;;;;9.60;7.70;;;;;;;12.08;45.26;97146.56;5115172;28;20585;-75
2022/04/12 04:22:23;;;;;;;9.37;7.43;;;;;;;11.91;45.52;97147.50;5115160;27;20462;-74
2022/04/12 04:24:49;;;;;;;10.63;7.60;;;;;;;11.88;45.73;97142.56;5112761;27;20431;-75
2022/04/12 04:27:16;;;;;;;10.73;6.87;;;;;;;11.90;45.98;97146.69;5118480;27;20190;-74
2022/04/12 04:29:42;;;;;;;7.37;6.33;;;;;;;11.87;45.75;97143.53;5114203;28;20669;-74
2022/04/12 04:32:08;;;;;;;12.43;6.43;;;;;;;11.84;45.71;97145.50;5117605;27;20423;-74
2022/04/12 04:34:33;;;;;;;9.97;7.00;;;;;;;11.88;45.63;97145.19;5115762;27;20426;-74
2022/04/12 04:36:59;;;;;;;10.83;7.40;;;;;;;11.92;45.51;97143.88;5119685;27;20863;-74
2022/04/12 04:39:24;;;;;;;8.37;6.23;;;;;;;11.90;45.98;97145.84;5122098;27;20184;-73
2022/04/12 04:41:50;;;;;;;13.80;8.00;;;;;;;11.86;45.73;97144.53;5114081;28;20177;-74
2022/04/12 04:44:16;;;;;;;9.73;7.40;;;;;;;11.86;45.46;97141.91;5131121;27;20184;-74
2022/04/12 04:46:42;;;;;;;11.13;7.77;;;;;;;11.93;45.60;97140.28;5106175;28;20193;-74
2022/04/12 04:49:07;;;;;;;13.43;7.70;;;;;;;11.90;45.32;97149.31;5114111;28;20451;-74
2022/04/12 04:51:35;;;;;;;11.27;7.37;;;;;;;11.92;45.38;97146.50;5113992;28;20205;-75
2022/04/12 04:54:01;;;;;;;10.73;7.33;;;;;;;11.95;45.08;97135.69;5116368;27;20189;-73
2022/04/12 04:56:27;;;;;;;15.03;8.23;;;;;;;11.96;45.29;97147.84;5114045;27;20437;-75
2022/04/12 04:58:53;;;;;;;11.10;7.20;;;;;;;12.07;45.08;97149.34;5122668;27;20181;-75
2022/04/12 05:01:20;;;;;;;10.67;7.20;;;;;;;12.03;45.04;97143.59;5121555;27;20437;-74
2022/04/12 05:03:47;;;;;;;10.40;7.17;;;;;;;12.00;45.15;97149.16;5113931;28;20472;-74
2022/04/12 05:06:13;;;;;;;14.10;8.00;;;;;;;11.93;45.73;97145.53;5112509;27;20451;-74
2022/04/12 05:08:39;;;;;;;10.70;7.00;;;;;;;11.98;45.54;97140.63;5112248;28;20463;-74
2022/04/12 05:11:04;;;;;;;10.70;7.63;;;;;;;11.89;45.61;97141.56;5110517;27;20502;-74
2022/04/12 05:13:29;;;;;;;11.73;8.03;;;;;;;11.88;45.89;97143.41;5104331;27;20211;-71
2022/04/12 05:15:55;;;;;;;13.70;8.13;;;;;;;11.82;46.38;97147.50;5102561;28;20205;-72
2022/04/12 05:18:21;;;;;;;15.60;7.30;;;;;;;11.90;45.98;97148.47;5128065;27;20180;-73
2022/04/12 05:20:47;;;;;;;16.00;6.70;;;;;;;11.91;46.48;97148.31;5116539;27;20196;-74
2022/04/12 05:23:12;;;;;;;16.87;8.20;;;;;;;11.94;46.39;97147.19;5120640;27;20423;-73
2022/04/12 05:25:38;;;;;;;11.83;6.83;;;;;;;12.00;45.69;97154.41;5108708;27;20215;-72
2022/04/12 05:28:04;;;;;;;12.00;7.93;;;;;;;12.05;45.65;97152.13;5121070;27;20178;-74
2022/04/12 05:30:29;;;;;;;11.90;7.50;;;;;;;12.07;45.82;97150.19;5133219;27;20200;-72
2022/04/12 05:32:55;;;;;;;12.90;8.43;;;;;;;12.10;46.18;97149.81;5121645;27;20185;-74
2022/04/12 05:35:20;;;;;;;11.27;7.73;;;;;;;12.14;45.76;97143.28;5132809;27;20192;-74
2022/04/12 05:37:52;;;;;;;10.50;7.40;;;;;;;12.17;45.77;97155.25;5098398;28;20193;-73
2022/04/12 05:40:20;;;;;;;14.13;7.93;;;;;;;12.22;44.81;97154.78;5109251;27;20193;-73
2022/04/12 05:42:47;;;;;;;13.60;8.60;;;;;;;12.15;45.13;97162.50;5113189;28;21030;-73
2022/04/12 05:45:13;;;;;;;11.23;7.67;;;;;;;12.07;45.57;97163.31;5120383;27;20469;-74
2022/04/12 05:47:49;;;;;;;13.10;8.43;;;;;;;12.17;45.96;97170.22;5112860;27;20754;-72
2022/04/12 05:50:16;;;;;;;10.93;8.43;;;;;;;12.33;45.27;97179.91;5120911;27;20452;-74
2022/04/12 05:52:42;;;;;;;15.00;8.30;;;;;;;12.25;45.19;97175.47;5098683;28;20490;-74
2022/04/12 05:55:15;;;;;;;10.37;7.90;;;;;;;12.29;45.26;97176.78;5113440;27;20458;-75
2022/04/12 05:57:59;;;;;;;18.73;8.30;;;;;;;12.22;45.43;97173.19;5112329;28;20476;-75
2022/04/12 06:00:26;;;;;;;15.53;8.50;;;;;;;12.19;45.63;97174.31;5112048;28;20478;-74
2022/04/12 06:02:53;;;;;;;11.63;8.67;;;;;;;12.40;45.36;97179.09;5112377;28;20423;-74
2022/04/12 06:05:19;;;;;;;8.77;7.87;;;;;;;12.53;44.85;97186.50;5109603;27;20449;-73
2022/04/12 06:07:46;;;;;;;14.60;8.60;;;;;;;12.67;44.59;97173.63;5112949;27;20487;-75
2022/04/12 06:10:13;;;;;;;13.93;8.00;;;;;;;12.80;44.02;97170.50;5094138;28;20494;-74
2022/04/12 06:12:38;;;;;;;18.03;8.40;;;;;;;12.96;44.21;97165.22;5112752;28;20494;-70
2022/04/12 06:15:05;;;;;;;15.93;8.47;;;;;;;13.10;44.03;97176.84;5112357;28;20422;-69
2022/04/12 06:17:32;;;;;;;11.93;8.10;;;;;;;13.23;43.99;97159.69;5093370;28;20189;-69
2022/04/12 06:20:08;;;;;;;12.30;8.37;;;;;;;13.47;44.07;97157.00;5111912;28;20446;-70
2022/04/12 06:22:34;;;;;;;27.03;7.50;;;;;;;13.74;43.50;97156.69;5096816;27;20900;-70
2022/04/12 06:24:59;;;;;;;10.60;7.33;;;;;;;13.85;43.01;97152.84;5117976;27;20423;-71
2022/04/12 06:27:32;;;;;;;15.33;8.67;;;;;;;13.91;42.46;97154.78;5111462;27;20181;-70
2022/04/12 06:29:58;;;;;;;12.13;8.07;;;;;;;14.01;42.46;97160.66;5111979;28;20223;-70
2022/04/12 06:32:25;;;;;;;12.00;8.00;;;;;;;14.07;41.88;97156.50;5083009;28;20419;-71
2022/04/12 06:34:51;;;;;;;14.60;8.10;;;;;;;13.98;42.27;97163.63;5112381;28;20196;-70
2022/04/12 06:37:16;;;;;;;22.47;7.03;;;;;;;14.13;42.03;97163.69;5120122;27;20438;-70
2022/04/12 06:39:42;;;;;;;12.43;7.83;;;;;;;14.26;42.04;97169.19;5128237;27;20196;-71
2022/04/12 06:42:07;;;;;;;10.20;7.77;;;;;;;14.38;41.68;97168.75;5112089;28;20188;-71
2022/04/12 06:44:33;;;;;;;12.00;8.00;;;;;;;14.58;41.72;97169.91;5112503;28;20275;-71
2022/04/12 06:46:59;;;;;;;10.57;7.70;;;;;;;14.72;41.14;97164.88;5112614;28;20199;-71
2022/04/12 06:49:24;;;;;;;15.87;7.80;;;;;;;14.80;41.22;97164.78;5112224;28;20212;-72
2022/04/12 06:51:49;;;;;;;14.27;7.20;;;;;;;14.88;40.94;97162.06;5098355;28;20269;-72
2022/04/12 06:54:15;;;;;;;13.10;7.50;;;;;;;15.18;40.70;97164.72;5109196;28;20177;-72
2022/04/12 06:56:40;;;;;;;13.27;7.77;;;;;;;15.30;40.47;97149.25;5112116;28;20183;-72
2022/04/12 06:59:06;;;;;;;9.10;7.00;;;;;;;15.33;39.69;97150.69;5112446;28;20184;-72
2022/04/12 07:01:31;;;;;;;17.23;7.77;;;;;;;15.44;39.62;97152.88;5121460;27;20208;-72
2022/04/12 07:03:57;;;;;;;14.07;6.90;;;;;;;15.28;39.93;97151.25;5108583;27;20199;-72
2022/04/12 07:06:22;;;;;;;10.90;7.10;;;;;;;15.42;39.71;97159.34;5101403;27;20189;-72
2022/04/12 07:08:48;;;;;;;13.30;7.63;;;;;;;15.41;39.48;97153.22;5111551;28;20200;-71
2022/04/12 07:11:13;;;;;;;15.23;7.90;;;;;;;15.50;39.27;97151.31;5120103;27;20204;-71
2022/04/12 07:13:39;;;;;;;14.23;7.70;;;;;;;15.61;39.18;97150.03;5122750;27;20187;-71
2022/04/12 07:16:04;;;;;;;11.23;7.80;;;;;;;15.60;39.57;97153.66;5116281;27;20181;-71
2022/04/12 07:18:30;;;;;;;12.70;7.10;;;;;;;15.88;39.14;97153.78;5092987;28;20181;-71
2022/04/12 07:20:55;;;;;;;14.00;7.50;;;;;;;15.97;38.64;97157.16;5111151;28;20665;-71
2022/04/12 07:23:21;;;;;;;14.77;7.50;;;;;;;16.16;38.88;97155.69;5111558;28;20184;-71
2022/04/12 07:25:46;;;;;;;9.13;6.93;;;;;;;16.35;38.00;97159.53;5115702;27;20279;-71
2022/04/12 07:28:12;;;;;;;14.40;7.80;;;;;;;16.38;37.56;97156.50;5123951;27;20192;-72
2022/04/12 07:30:38;;;;;;;15.93;7.23;;;;;;;16.38;37.57;97153.84;5113341;28;20196;-71
2022/04/12 07:33:03;;;;;;;13.77;7.07;;;;;;;16.49;37.76;97159.66;5113690;27;20181;-70
2022/04/12 07:35:30;;;;;;;17.23;8.10;;;;;;;16.51;37.33;97157.59;5110789;28;20557;-68
2022/04/12 07:37:56;;;;;;;23.63;7.93;;;;;;;16.59;37.31;97154.84;5111141;28;20188;-70
2022/04/12 07:40:21;;;;;;;14.93;6.90;;;;;;;16.80;37.10;97156.63;5119065;27;20985;-70
2022/04/12 07:42:48;;;;;;;13.30;6.83;;;;;;;16.86;36.74;97147.91;5111368;28;20185;-71
2022/04/12 07:45:13;;;;;;;12.13;7.47;;;;;;;17.17;36.87;97145.84;5111240;28;20185;-71
2022/04/12 07:47:38;;;;;;;12.73;7.87;;;;;;;17.45;36.86;97152.94;5111119;28;20407;-71
2022/04/12 07:50:05;;;;;;;9.70;7.30;;;;;;;17.32;35.82;97151.84;5110410;28;20685;-71
2022/04/12 07:52:30;;;;;;;11.27;7.27;;;;;;;17.28;36.10;97158.53;5112945;28;20250;-71
2022/04/12 07:54:56;;;;;;;10.83;7.83;;;;;;;17.00;36.30;97159.44;5116793;28;20415;-71
2022/04/12 07:57:21;;;;;;;22.93;7.43;;;;;;;17.36;36.07;97149.63;5111192;28;20679;-71
2022/04/12 07:59:47;;;;;;;11.67;6.27;;;;;;;17.54;35.98;97154.38;5110851;28;20189;-71
2022/04/12 08:02:12;;;;;;;8.97;6.27;;;;;;;17.64;36.21;97154.81;5111510;28;20181;-71
2022/04/12 08:04:41;;;;;;;9.33;6.90;;;;;;;17.92;36.01;97150.44;5114540;28;20210;-71
2022/04/12 08:07:07;;;;;;;14.03;6.87;;;;;;;18.01;35.41;97159.06;5123078;27;20368;-70
2022/04/12 08:09:32;;;;;;;8.57;6.60;;;;;;;17.92;35.67;97156.53;5111816;28;20558;-71
2022/04/12 08:11:58;;;;;;;9.10;6.60;;;;;;;17.88;35.43;97157.97;5095323;28;20185;-70
2022/04/12 08:14:23;;;;;;;9.27;6.40;;;;;;;18.11;34.99;97167.44;5108583;28;20311;-71
2022/04/12 08:16:49;;;;;;;7.67;6.33;;;;;;;18.19;35.39;97153.97;5111185;28;20184;-71
2022/04/12 08:19:14;;;;;;;8.60;6.00;;;;;;;18.48;35.53;97159.91;5110763;28;20177;-72
2022/04/12 08:21:40;;;;;;;7.77;6.63;;;;;;;18.63;35.20;97154.38;5110665;28;20217;-70
2022/04/12 08:24:06;;;;;;;9.30;5.80;;;;;;;18.93;35.32;97150.47;5110407;28;20649;-71
2022/04/12 08:26:32;;;;;;;8.53;6.30;;;;;;;19.16;34.74;97152.72;5118237;28;20259;-71
2022/04/12 08:28:57;;;;;;;10.17;5.83;;;;;;;19.29;34.81;97147.34;5110232;28;20629;-70
2022/04/12 08:31:23;;;;;;;8.33;5.93;;;;;;;19.44;34.12;97146.28;5092032;28;20255;-71
2022/04/12 08:33:49;;;;;;;13.83;5.90;;;;;;;19.54;34.06;97143.16;5111686;28;20181;-70
2022/04/12 08:36:16;;;;;;;10.20;5.50;;;;;;;19.62;33.70;97143.75;5106972;28;20195;-71
2022/04/12 08:38:45;;;;;;;7.83;5.33;;;;;;;19.89;33.47;97132.19;5105571;28;20184;-71
2022/04/12 08:41:12;;;;;;;10.17;5.80;;;;;;;19.79;32.53;97135.28;5124816;27;20464;-70
2022/04/12 08:43:39;;;;;;;7.13;5.20;;;;;;;20.01;32.74;97130.47;5096563;27;20427;-71
2022/04/12 08:46:05;;;;;;;8.27;4.90;;;;;;;20.28;32.03;97127.63;5113737;28;20487;-71
2022/04/12 08:48:32;;;;;;;6.17;4.33;;;;;;;20.31;31.82;97127.19;5110433;27;20483;-71
2022/04/12 08:50:58;;;;;;;8.13;4.73;;;;;;;20.55;31.88;97122.91;5123711;27;20449;-72
2022/04/12 08:53:23;;;;;;;5.97;4.37;;;;;;;20.86;31.57;97120.41;5116207;27;20438;-71
2022/04/12 08:55:49;;;;;;;11.93;4.33;;;;;;;20.84;30.67;97127.78;5107432;27;20180;-71
2022/04/12 08:58:14;;;;;;;6.00;3.67;;;;;;;21.07;31.15;97132.47;5108725;27;20663;-71
2022/04/12 09:00:40;;;;;;;4.40;3.70;;;;;;;21.24;29.99;97130.03;5120848;27;20691;-71
2022/04/12 09:03:05;;;;;;;7.33;4.00;;;;;;;20.97;30.04;97132.97;5114153;28;20181;-73
2022/04/12 09:05:33;;;;;;;5.87;4.00;;;;;;;21.16;29.91;97130.34;5117034;27;20215;-70
2022/04/12 09:07:59;;;;;;;8.20;3.97;;;;;;;21.24;29.66;97127.38;5113477;28;20177;-70
2022/04/12 09:10:35;;;;;;;4.23;3.73;;;;;;;21.37;29.88;97134.38;5113114;28;20442;-71
2022/04/12 09:13:14;;;;;;;7.80;4.00;;;;;;;21.30;29.81;97138.97;5114500;27;20180;-70
2022/04/12 09:15:46;;;;;;;7.10;3.70;;;;;;;21.51;29.82;97124.38;5113685;28;20422;-71
2022/04/12 09:18:11;;;;;;;5.07;3.23;;;;;;;21.79;29.84;97131.03;5113455;27;20942;-71
2022/04/12 09:20:37;;;;;;;5.63;3.57;;;;;;;21.74;28.83;97133.53;5094699;28;20446;-71
2022/04/12 09:23:13;;;;;;;8.27;3.70;;;;;;;22.08;28.18;97121.38;5080067;28;20181;-70
2022/04/12 09:25:52;;;;;;;7.73;3.73;;;;;;;22.28;28.20;97125.56;5060777;28;20431;-70
2022/04/12 09:28:19;;;;;;;8.77;3.70;;;;;;;22.70;28.41;97130.06;5078111;28;20463;-70
2022/04/12 09:30:44;;;;;;;10.50;3.90;;;;;;;23.02;27.46;97122.47;5094888;28;20446;-70
2022/04/12 09:33:10;;;;;;;7.87;3.90;;;;;;;23.26;26.76;97119.00;5113318;28;20427;-70
2022/04/12 09:35:35;;;;;;;7.77;3.50;;;;;;;23.52;26.68;97116.81;5113232;27;20535;-71
2022/04/12 09:38:01;;;;;;;7.97;3.03;;;;;;;23.64;26.53;97112.25;5097247;28;20284;-71
2022/04/12 09:40:26;;;;;;;10.43;3.80;;;;;;;23.82;26.58;97113.91;5109262;27;20258;-70
2022/04/12 09:42:57;;;;;;;12.90;4.10;;;;;;;23.83;25.61;97112.88;5113241;28;20613;-70
2022/04/12 09:45:28;;;;;;;5.47;3.40;;;;;;;24.03;25.94;97115.13;5132643;27;20191;-70
2022/04/12 09:47:55;;;;;;;5.07;3.70;;;;;;;24.16;25.72;97105.16;5112991;28;20758;-71
2022/04/12 09:50:25;;;;;;;6.20;3.80;;;;;;;24.37;25.44;97104.41;5112353;28;20519;-70
2022/04/12 09:53:01;;;;;;;5.30;3.40;;;;;;;24.61;25.80;97098.88;5112473;28;20954;-70
2022/04/12 09:55:46;;;;;;;4.50;2.73;;;;;;;24.87;25.93;97088.56;5112724;28;20944;-72
2022/04/12 09:58:16;;;;;;;5.03;3.53;;;;;;;25.20;25.60;97081.47;5113610;27;20419;-71
2022/04/12 10:00:43;;;;;;;5.70;2.80;;;;;;;25.40;25.05;97093.50;5112282;28;20442;-72
2022/04/12 10:03:11;;;;;;;3.90;2.93;;;;;;;25.53;23.97;97092.31;5121080;27;20546;-71
2022/04/12 10:05:37;;;;;;;3.97;2.90;;;;;;;25.72;23.73;97088.25;5112833;28;20434;-71
2022/04/12 10:08:04;;;;;;;3.70;2.80;;;;;;;25.73;23.16;97094.41;5112630;28;20971;-71
2022/04/12 10:10:30;;;;;;;9.13;2.67;;;;;;;25.73;22.52;97091.72;5111661;28;20201;-71
2022/04/12 10:12:57;;;;;;;5.40;2.47;;;;;;;25.35;22.26;97090.75;5112854;28;20430;-71
2022/04/12 10:15:26;;;;;;;6.70;2.40;;;;;;;25.48;22.48;97090.38;5112559;28;20189;-71
2022/04/12 10:17:52;;;;;;;4.67;2.50;;;;;;;25.19;22.56;97090.59;5112300;28;20977;-71
2022/04/12 10:20:18;;;;;;;4.83;2.80;;;;;;;24.79;23.09;97095.16;5104661;27;20509;-70
2022/04/12 10:22:44;;;;;;;5.47;2.30;;;;;;;24.67;22.35;97087.19;5098991;28;20800;-71
2022/04/12 10:25:11;;;;;;;2.07;1.90;;;;;;;25.15;23.31;97090.25;5111791;28;20482;-71
2022/04/12 10:27:37;;;;;;;2.60;2.10;;;;;;;25.38;22.91;97095.63;5102636;28;20435;-71
2022/04/12 10:30:25;;;;;;;6.87;2.80;;;;;;;25.46;22.33;97089.81;5095663;28;20502;-71
2022/04/12 10:33:29;;;;;;;3.70;2.47;;;;;;;25.75;22.67;97081.56;5112105;28;20776;-71
2022/04/12 10:35:55;;;;;;;4.30;2.43;;;;;;;25.90;22.54;97081.69;5113054;27;20810;-70
2022/04/12 10:38:39;;;;;;;2.70;2.50;;;;;;;25.47;23.26;97083.41;5111812;27;20539;-70
2022/04/12 10:41:15;;;;;;;2.93;2.10;;;;;;;25.79;22.49;97081.84;5117173;27;20446;-70
2022/04/12 10:43:41;;;;;;;2.60;2.40;;;;;;;25.93;22.52;97083.06;5098519;28;20428;-71
2022/04/12 10:46:11;;;;;;;5.00;2.87;;;;;;;25.94;22.54;97073.94;5107272;28;20429;-72
2022/04/12 10:48:37;;;;;;;3.37;2.43;;;;;;;25.83;22.08;97070.38;5093332;28;20535;-72
2022/04/12 10:51:04;;;;;;;5.77;3.13;;;;;;;25.87;23.09;97066.09;5095616;28;20883;-71
2022/04/12 10:53:38;;;;;;;3.93;2.90;;;;;;;25.87;22.78;97068.78;5110029;28;20228;-72
2022/04/12 10:56:04;;;;;;;3.10;2.40;;;;;;;26.07;22.82;97062.78;5111672;28;20430;-72
2022/04/12 10:58:31;;;;;;;4.53;2.70;;;;;;;26.21;23.08;97057.81;5111074;28;20419;-72
2022/04/12 11:00:56;;;;;;;7.77;3.07;;;;;;;25.81;22.71;97056.41;5110997;28;20220;-70
2022/04/12 11:03:40;;;;;;;4.80;3.10;;;;;;;25.77;22.91;97047.22;5111201;28;20430;-71
2022/04/12 11:06:10;;;;;;;5.57;2.53;;;;;;;26.16;23.24;97039.00;5111362;28;20275;-71
2022/04/12 11:08:35;;;;;;;3.00;2.40;;;;;;;26.43;23.45;97046.16;5119717;27;20455;-71
2022/04/12 11:11:01;;;;;;;6.87;2.93;;;;;;;26.45;22.25;97045.88;5111308;28;20812;-71
2022/04/12 11:13:32;;;;;;;4.33;2.80;;;;;;;26.50;22.69;97041.34;5110939;28;20189;-71
2022/04/12 11:16:00;;;;;;;5.53;2.73;;;;;;;26.59;22.15;97039.00;5111687;28;20180;-72
2022/04/12 11:18:49;;;;;;;4.47;2.60;;;;;;;26.64;23.02;97038.22;5110824;28;20422;-72
2022/04/12 11:21:17;;;;;;;10.63;2.70;;;;;;;26.47;22.43;97035.69;5097072;28;20442;-74
2022/04/12 11:23:51;;;;;;;4.40;2.30;;;;;;;26.37;22.13;97031.88;5098233;28;20542;-74
2022/04/12 11:26:36;;;;;;;2.80;2.53;;;;;;;26.34;22.33;97031.56;5115814;27;20487;-71
2022/04/12 11:29:06;;;;;;;3.77;2.40;;;;;;;26.43;22.66;97034.59;5110935;28;20463;-71
2022/04/12 11:31:36;;;;;;;3.40;2.40;;;;;;;26.03;22.00;97036.72;5092668;28;21164;-71